Flight Track Log - Related Links

Times and Time Zones

All times are in EDT time to prevent confusion due to time zone crossing. See the JZA8754 flight status page for this flight to view local times or setup timezone preferences in your user account.


Time Position Orientation Groundspeed Altitude Reporting Facility
EDT Latitude Longitude Course Direction KTS MPH feet Rate Location/Type
Tue 09:09:00 PM 47.8434 -77.4308 133° Southeast  Level Estimated
Tue 09:10:00 PM 47.8047 -77.3594 127° Southeast  Level FlightAware Approximate
Tue 09:11:00 PM 47.7629 -77.2916 133° Southeast  Level FlightAware Approximate
Tue 09:12:00 PM 47.7204 -77.2248 133° Southeast  Level FlightAware Approximate
Tue 09:13:00 PM 47.6780 -77.1581 133° Southeast  Level FlightAware Approximate
Tue 09:14:00 PM 47.6360 -77.0907 133° Southeast  Level FlightAware Approximate
Tue 09:15:00 PM 47.5940 -77.0234 133° Southeast  Level FlightAware Approximate
Tue 09:16:00 PM 47.5519 -76.9562 133° Southeast  Level FlightAware Approximate
Tue 09:17:00 PM 47.5100 -76.8891 132° Southeast  Level FlightAware Approximate
Tue 09:17:02 PM 47.6667 -77.0333 131° Southeast 280 322 15,100  Level Montreal Center
Tue 09:18:00 PM 47.4684 -76.8214 132° Southeast  Level FlightAware Approximate
Tue 09:18:02 PM 47.6167 -76.9667 138° Southeast 210 242 15,900  Level Montreal Center
Tue 09:19:00 PM 47.4268 -76.7538 132° Southeast  Level FlightAware Approximate
Tue 09:19:02 PM 47.5833 -76.9167 135° Southeast 210 242 16,700  Level Montreal Center
Tue 09:20:00 PM 47.3851 -76.6862 132° Southeast  Level FlightAware Approximate
Tue 09:20:02 PM 47.5500 -76.8333 121° Southeast 200 230 17,700  Level Montreal Center
Tue 09:21:00 PM 47.3446 -76.6173 131° Southeast  Level FlightAware Approximate
Tue 09:21:02 PM 47.5000 -76.7833 146° Southeast 210 242 18,400  Level Montreal Center
Tue 09:22:00 PM 47.3042 -76.5484 131° Southeast  Level FlightAware Approximate
Tue 09:22:02 PM 47.4667 -76.7167 126° Southeast 200 230 19,100  Level Montreal Center
Tue 09:24:02 PM 47.3833 -76.5833 133° Southeast 220 253 20,200 567 Climbing Montreal Center
Tue 09:25:02 PM 47.3333 -76.5333 146° Southeast 220 253 20,800 600 Climbing Montreal Center
Tue 09:26:02 PM 47.3000 -76.4667 126° Southeast 220 253 21,400 550 Climbing Montreal Center
Tue 09:27:02 PM 47.2500 -76.3833 131° Southeast 220 253 21,900 550 Climbing Montreal Center
Tue 09:28:02 PM 47.2167 -76.3333 134° Southeast 220 253 22,500 500 Climbing Montreal Center
Tue 09:29:02 PM 47.1667 -76.2667 138° Southeast 220 253 22,900 250 Climbing Montreal Center
Tue 09:30:02 PM 47.1167 -76.1833 131° Southeast 230 265 23,000 50 Climbing Montreal Center
Tue 09:31:02 PM 47.0667 -76.1167 138° Southeast 250 288 23,000  Level Montreal Center
Tue 09:32:02 PM 47.0167 -76.0333 131° Southeast 260 299 23,000  Level Montreal Center
Tue 09:33:02 PM 46.9667 -75.9667 138° Southeast 260 299 23,000  Level Montreal Center
Tue 09:34:02 PM 46.9167 -75.9000 138° Southeast 260 299 23,000  Level Montreal Center
Tue 09:35:02 PM 46.8667 -75.8000 126° Southeast 260 299 23,000  Level Montreal Center
Tue 09:36:02 PM 46.8167 -75.7167 131° Southeast 260 299 23,000  Level Montreal Center
Tue 09:37:02 PM 46.7667 -75.6500 138° Southeast 260 299 23,000  Level Montreal Center
Tue 09:38:02 PM 46.7167 -75.5833 138° Southeast 260 299 23,000  Level Montreal Center
Tue 09:39:02 PM 46.6833 -75.5000 120° Southeast 260 299 23,000  Level Montreal Center
Tue 09:40:02 PM 46.6333 -75.4000 126° Southeast 260 299 23,000 -50 Level Montreal Center
Tue 09:41:02 PM 46.5833 -75.3333 137° Southeast 260 299 22,900 -350 Descending Montreal Center
Tue 09:42:02 PM 46.5333 -75.2667 137° Southeast 270 311 22,300 -550 Descending Montreal Center
Tue 09:43:02 PM 46.4833 -75.1833 131° Southeast 280 322 21,800 -450 Descending Montreal Center
Tue 09:44:02 PM 46.4333 -75.0833 126° Southeast 280 322 21,400 -500 Descending Montreal Center
Tue 09:45:02 PM 46.3833 -75.0000 131° Southeast 280 322 20,800 -500 Descending Montreal Center
Tue 09:46:02 PM 46.3167 -74.9167 139° Southeast 280 322 20,400 -500 Descending Montreal Center
Tue 09:47:02 PM 46.2500 -74.8333 139° Southeast 280 322 19,800 -500 Descending Montreal Center
Tue 09:48:02 PM 46.2000 -74.7500 131° Southeast 280 322 19,400 -600 Descending Montreal Center
Tue 09:49:02 PM 46.1500 -74.6667 131° Southeast 280 322 18,600 -1,100 Descending Montreal Center
Tue 09:50:02 PM 46.1000 -74.5833 131° Southeast 290 334 17,200 -1,400 Descending Montreal Center
Tue 09:51:02 PM 46.0333 -74.5000 139° Southeast 310 357 15,800 -1,500 Descending Montreal Center
Tue 09:52:02 PM 45.9667 -74.4167 139° Southeast 300 345 14,200 -1,500 Descending Montreal Center
Tue 09:53:02 PM 45.9167 -74.3500 137° Southeast 290 334 12,800 -1,400 Descending Montreal Center
Tue 09:54:02 PM 45.8500 -74.2833 145° Southeast 280 322 11,400 -1,350 Descending Montreal Center
Tue 09:55:02 PM 45.8000 -74.2167 137° Southeast 270 311 10,100 -1,250 Descending Montreal Center
Tue 09:56:02 PM 45.7500 -74.1500 137° Southeast 270 311 8,900 -1,250 Descending Montreal Center
Tue 09:57:02 PM 45.7000 -74.0167 118° Southeast 270 311 7,600 -1,200 Descending Montreal Center
Tue 09:58:02 PM 45.6500 -73.9500 137° Southeast 260 299 6,500 -1,100 Descending Montreal Center
Tue 09:59:02 PM 45.6167 -73.8333 112° Southeast 260 299 5,400 -1,250 Descending Montreal Center
Tue 10:00:02 PM 45.6000 -73.7333 103° East 260 299 4,000 -1,600 Descending Montreal Center
Tue 10:01:02 PM 45.5667 -73.6667 126° Southeast 220 253 2,200 -1,400 Descending Montreal Center
Tue 10:02:02 PM 45.5167 -73.6667 180° South 170 196 1,200 -800 Descending Montreal Center
Tue 10:03:02 PM 45.4833 -73.7000 215° Southwest 120 138 600 -600 Descending Montreal Center

Login

Don't have an account? Register now (free) for customized features, flight alerts, and more!